Wilson Lisbon — 5BNU3 — position and weather

sailwx.info

Track history (hours):
 
Tides and Currents Weather Stations Pressure Air Temp Water Temp Dewpoint Dewpoint Depression Visibility Wind Speed Wind Dir Waves Ship Positions

Wilson Lisbon

Last reported at 2015-Aug-27 23:32 UTC. Time now 2015-Aug-28 00:18 UTC.
Position N 58°23' E 005°44'.

Length 90 m; draft 3.5 m.

Type: Ship. MMSI: 212376000.

Date/timePositionNaut miles runAvg speedWind from/ knotsBaromVisibWave heightAir tempDewpointWater temp
2015-Aug-27 23:32N 58°23' E 005°44'8 8.5
2015-Aug-27 22:33N 58°29' E 005°33'15 7.4
2015-Aug-27 20:32N 58°43' E 005°23'7 7.5
2015-Aug-27 19:33N 58°50' E 005°27'9 8.5
2015-Aug-27 18:33N 58°58' E 005°33'7 7.0
2015-Aug-27 17:34N 59°01' E 005°45'4 4.2
2015-Aug-27 16:34N 58°57' E 005°45'0 0.0
2015-Aug-27 15:32N 58°57' E 005°45'0 0.0
2015-Aug-27 14:32N 58°57' E 005°45'0 0.0
2015-Aug-27 13:32N 58°57' E 005°45'0 0.0
2015-Aug-27 12:32N 58°57' E 005°45'0 0.0
2015-Aug-27 11:32N 58°57' E 005°45'0 0.0
2015-Aug-27 10:32N 58°57' E 005°45'0 0.0
2015-Aug-27 09:32N 58°57' E 005°45'0 0.0
2015-Aug-27 08:32N 58°57' E 005°45'0 0.0
2015-Aug-27 07:32N 58°57' E 005°45'0 0.0
2015-Aug-27 06:32N 58°57' E 005°45'0 0.0
2015-Aug-27 05:32N 58°57' E 005°45'0 0.0
2015-Aug-27 04:32N 58°57' E 005°45'0 0.0
2015-Aug-27 03:32N 58°57' E 005°45'0 0.0
2015-Aug-27 02:32N 58°57' E 005°45'0 0.0
2015-Aug-27 01:32N 58°57' E 005°45'0 0.0
2015-Aug-27 00:32N 58°57' E 005°45'0 0.0
2015-Aug-26 23:32N 58°57' E 005°45'0 0.0
2015-Aug-26 22:32N 58°57' E 005°45'0 0.0
2015-Aug-26 21:32N 58°57' E 005°45'0 0.0
2015-Aug-26 20:32N 58°57' E 005°45'0 0.0
2015-Aug-26 19:32N 58°57' E 005°45'1 1.4
2015-Aug-26 18:34N 58°58' E 005°46'1 0.6
2015-Aug-26 17:32N 58°58' E 005°45'0 0.0
2015-Aug-26 16:32N 58°58' E 005°45'0 0.0
2015-Aug-26 15:32N 58°58' E 005°45'0 0.0
2015-Aug-26 14:32N 58°58' E 005°45'0 0.0
2015-Aug-26 13:32N 58°58' E 005°45'0 0.0
2015-Aug-26 12:32N 58°58' E 005°45'0 0.0
2015-Aug-26 11:32N 58°58' E 005°45'0 0.0
2015-Aug-26 10:32N 58°58' E 005°45'0 0.0
2015-Aug-26 09:32N 58°58' E 005°45'0 0.0
2015-Aug-26 08:32N 58°58' E 005°45'0 0.0
2015-Aug-26 07:32N 58°58' E 005°45'0 0.0
2015-Aug-26 06:32N 58°58' E 005°45'0 0.0
2015-Aug-26 05:32N 58°58' E 005°45'0 0.0
2015-Aug-26 04:32N 58°58' E 005°45'0 0.0
2015-Aug-26 03:32N 58°58' E 005°45'0 0.0
2015-Aug-26 02:32N 58°58' E 005°45'0 0.0
2015-Aug-26 01:32N 58°58' E 005°45'0 0.0
2015-Aug-26 00:32N 58°58' E 005°45'0 0.0
2015-Aug-25 23:32N 58°58' E 005°45'0 0.0
2015-Aug-25 22:32N 58°58' E 005°45'0 0.0
2015-Aug-25 21:32N 58°58' E 005°45'0 0.0
2015-Aug-25 20:32N 58°58' E 005°45'0 0.0
2015-Aug-25 19:32N 58°58' E 005°45'0 0.0
2015-Aug-25 18:32N 58°58' E 005°45'2 1.6
2015-Aug-25 17:33N 58°57' E 005°45'0 0.0
2015-Aug-25 16:32N 58°57' E 005°45'0 0.0
2015-Aug-25 15:32N 58°57' E 005°45'0 0.0
2015-Aug-25 14:32N 58°57' E 005°45'0 0.0
2015-Aug-25 13:32N 58°57' E 005°45'0 0.0
2015-Aug-25 12:32N 58°57' E 005°45'0 0.0
2015-Aug-25 11:32N 58°57' E 005°45'0 0.0
2015-Aug-25 10:32N 58°57' E 005°45'0 0.0
2015-Aug-25 09:32N 58°57' E 005°45'0 0.0
2015-Aug-25 08:32N 58°57' E 005°45'0 0.0
2015-Aug-25 07:32N 58°57' E 005°45'0 0.0
2015-Aug-25 06:32N 58°57' E 005°45'0 0.0
2015-Aug-25 05:32N 58°57' E 005°45'1 0.7
2015-Aug-25 04:34N 58°57' E 005°46'8 7.9
2015-Aug-25 03:34N 59°02' E 005°34'1010.3
2015-Aug-25 02:33N 58°52' E 005°31'7 6.8
2015-Aug-25 01:33N 58°47' E 005°23'15 7.3
2015-Aug-24 23:31N 58°32' E 005°26'8 8.0
2015-Aug-24 22:33N 58°26' E 005°37'8 8.4
2015-Aug-24 21:33N 58°21' E 005°48'7 7.4
2015-Aug-24 20:34N 58°16' E 005°59'8 8.3
2015-Aug-24 19:33N 58°10' E 006°10'8 8.0
2015-Aug-24 18:33N 58°04' E 006°20'63 7.7
2015-Aug-24 10:27N 58°01' E 008°19'7 8.3
2015-Aug-24 09:33N 58°05' E 008°31'8 7.9
2015-Aug-24 08:33N 58°10' E 008°42'8 8.4
2015-Aug-24 07:33N 58°16' E 008°54'18 8.7
2015-Aug-24 05:26N 58°28' E 009°20'8 9.1
2015-Aug-24 04:34N 58°34' E 009°31'8 8.0
2015-Aug-24 03:34N 58°39' E 009°42'8 7.9
2015-Aug-24 02:34N 58°45' E 009°53'8 7.6
2015-Aug-24 01:33N 58°50' E 010°03'7 7.4
2015-Aug-24 00:34N 58°54' E 010°15'8 7.7
2015-Aug-23 23:34N 58°58' E 010°28'8 8.2
2015-Aug-23 22:34N 59°02' E 010°42'8 7.9
2015-Aug-23 21:34N 59°01' E 010°57'9 9.4
2015-Aug-23 20:34N 59°11' E 010°57'6 5.8
2015-Aug-23 19:33N 59°16' E 011°03'1 1.2
2015-Aug-23 18:31N 59°16' E 011°05'0 0.0
2015-Aug-23 17:31N 59°16' E 011°05'0 0.0
2015-Aug-23 16:28N 59°16' E 011°05'0 0.0
2015-Aug-23 15:31N 59°16' E 011°05'0 0.0
2015-Aug-23 14:28N 59°16' E 011°05'0 0.0
2015-Aug-23 13:31N 59°16' E 011°05'0 0.0
2015-Aug-23 12:31N 59°16' E 011°05'0 0.0
2015-Aug-23 11:28N 59°16' E 011°05'0 0.0
2015-Aug-23 10:31N 59°16' E 011°05'0 0.0
2015-Aug-23 09:28N 59°16' E 011°05'0 0.0
2015-Aug-23 08:31N 59°16' E 011°05'0 0.0
2015-Aug-23 07:31N 59°16' E 011°05'0 0.0
2015-Aug-23 06:31N 59°16' E 011°05'0 0.0
2015-Aug-23 05:31N 59°16' E 011°05'0 0.0
2015-Aug-23 04:28N 59°16' E 011°05'0 0.0
2015-Aug-23 03:31N 59°16' E 011°05'0 0.0
2015-Aug-23 02:31N 59°16' E 011°05'0 0.0
2015-Aug-23 01:31N 59°16' E 011°05'0 0.0
2015-Aug-23 00:31N 59°16' E 011°05'0 0.0
2015-Aug-22 23:31N 59°16' E 011°05'0 0.0
2015-Aug-22 22:31N 59°16' E 011°05'0 0.0
2015-Aug-22 21:31N 59°16' E 011°05'0 0.0
2015-Aug-22 18:31N 59°16' E 011°05'0 0.0
2015-Aug-22 17:31N 59°16' E 011°05'0 0.0
2015-Aug-22 16:31N 59°16' E 011°05'0 0.0
2015-Aug-22 15:31N 59°16' E 011°05'0 0.0
2015-Aug-22 12:25N 59°16' E 011°05'0 0.0
2015-Aug-22 11:31N 59°16' E 011°05'0 0.0
2015-Aug-22 10:28N 59°16' E 011°05'0 0.0
2015-Aug-22 09:31N 59°16' E 011°05'4 4.4
2015-Aug-22 08:33N 59°13' E 010°59'9 9.1
2015-Aug-22 07:34N 59°04' E 010°58'8 7.8
2015-Aug-22 06:33N 59°01' E 010°45'1010.3
2015-Aug-22 05:33N 58°50' E 010°46'8 8.0
2015-Aug-22 04:33N 58°42' E 010°45'9 8.5
2015-Aug-22 03:33N 58°34' E 010°45'9 9.2
2015-Aug-22 02:33N 58°25' E 010°45'9 9.1
2015-Aug-22 01:33N 58°16' E 010°46'9 9.3
2015-Aug-22 00:33N 58°06' E 010°46'9 8.7
2015-Aug-21 23:33N 57°58' E 010°46'8 8.2
2015-Aug-21 22:33N 57°49' E 010°47'9 8.9
2015-Aug-21 21:33N 57°40' E 010°46'1010.2
2015-Aug-21 20:33N 57°30' E 010°44'1010.4
2015-Aug-21 19:33N 57°20' E 010°43'1010.3
2015-Aug-21 18:33N 57°10' E 010°46'9 9.5
2015-Aug-21 17:33N 57°01' E 010°51'10 9.6
2015-Aug-21 16:33N 56°52' E 010°57'10 9.8
2015-Aug-21 15:33N 56°42' E 011°02'10 9.9
2015-Aug-21 14:33N 56°32' E 011°04'10 9.6
2015-Aug-21 13:33N 56°23' E 011°06'10 9.5
2015-Aug-21 12:33N 56°13' E 011°06'9 9.5
2015-Aug-21 11:33N 56°04' E 011°05'9 9.0
2015-Aug-21 10:33N 55°56' E 010°58'9 8.9
2015-Aug-21 09:33N 55°48' E 010°50'10 9.5
2015-Aug-21 08:33N 55°39' E 010°47'10 9.8
2015-Aug-21 07:33N 55°30' E 010°54'9 9.0
2015-Aug-21 06:33N 55°22' E 011°02'9 9.0
2015-Aug-21 05:33N 55°14' E 011°06'9 8.9
2015-Aug-21 04:33N 55°05' E 011°03'8 8.5
2015-Aug-21 03:33N 54°57' E 010°58'9 9.1
2015-Aug-21 02:33N 54°49' E 010°52'8 8.3
2015-Aug-21 01:33N 54°40' E 010°50'8 7.6
2015-Aug-21 00:33N 54°36' E 010°40'8 8.5
2015-Aug-20 23:33N 54°32' E 010°27'8 8.4
2015-Aug-20 22:33N 54°27' E 010°15'6 6.2
2015-Aug-20 21:33N 54°22' E 010°08'0 0.4
2015-Aug-20 20:32N 54°22' E 010°08'0 0.5
2015-Aug-20 19:33N 54°22' E 010°09'2 1.9
2015-Aug-20 18:31N 54°20' E 010°10'0 0.0
2015-Aug-20 17:31N 54°20' E 010°10'0 0.0
2015-Aug-20 16:31N 54°20' E 010°10'0 0.0
2015-Aug-20 15:31N 54°20' E 010°10'0 0.0
2015-Aug-20 14:31N 54°20' E 010°10'0 0.0
2015-Aug-20 13:31N 54°20' E 010°10'0 0.0
2015-Aug-20 12:25N 54°20' E 010°10'0 0.0
2015-Aug-20 11:31N 54°20' E 010°10'0 0.0
2015-Aug-20 10:31N 54°20' E 010°10'0 0.0
2015-Aug-20 09:31N 54°20' E 010°10'0 0.0
2015-Aug-20 08:10N 54°20' E 010°10'6 1.7
2015-Aug-20 04:20N 54°26' E 010°13'5 7.0
2015-Aug-20 03:34N 54°30' E 010°20'7 7.5
2015-Aug-20 02:34N 54°33' E 010°32'8 7.6
2015-Aug-20 01:33N 54°37' E 010°43'8 7.9
2015-Aug-20 00:33N 54°44' E 010°50'8 7.9
2015-Aug-19 23:34N 54°52' E 010°52'8 7.5
2015-Aug-19 22:33N 54°58' E 010°59'86 7.0
2015-Aug-19 10:13N 56°23' E 011°29'5 7.7
2015-Aug-19 09:31N 56°27' E 011°34'9 7.8
2015-Aug-19 08:21N 56°35' E 011°42'6 7.9
2015-Aug-19 07:34N 56°41' E 011°48'8 7.2
2015-Aug-19 06:26N 56°49' E 011°50'7 7.8
2015-Aug-19 05:33N 56°55' E 011°46'8 8.0
2015-Aug-19 04:33N 57°03' E 011°41'8 8.0
2015-Aug-19 03:32N 57°11' E 011°36'8 8.0
2015-Aug-19 02:34N 57°18' E 011°31'8 8.0
2015-Aug-19 01:34N 57°25' E 011°26'8 7.7
2015-Aug-19 00:33N 57°31' E 011°16'8 7.8
2015-Aug-18 23:33N 57°36' E 011°05'8 7.6
2015-Aug-18 22:34N 57°42' E 010°56'8 7.5
2015-Aug-18 21:33N 57°47' E 010°45'7 7.5
2015-Aug-18 20:33N 57°47' E 010°31'8 7.7
2015-Aug-18 19:34N 57°46' E 010°17'  
Track history (hours):
 
Tides and Currents Weather Stations Pressure Air Temp Water Temp Dewpoint Dewpoint Depression Visibility Wind Speed Wind Dir Waves Ship Positions

Wilson Lisbon

Last reported at 2015-Aug-27 23:32 UTC. Time now 2015-Aug-28 00:18 UTC.
Position N 58°23' E 005°44'.

Length 90 m; draft 3.5 m.

Type: Ship. MMSI: 212376000.

Date/timePositionNaut miles runAvg speedWind from/ knotsBaromVisibWave heightAir tempDewpointWater temp
2015-Aug-27 23:32N 58°23' E 005°44'8 8.5
2015-Aug-27 22:33N 58°29' E 005°33'15 7.4
2015-Aug-27 20:32N 58°43' E 005°23'7 7.5
2015-Aug-27 19:33N 58°50' E 005°27'9 8.5
2015-Aug-27 18:33N 58°58' E 005°33'7 7.0
2015-Aug-27 17:34N 59°01' E 005°45'4 4.2
2015-Aug-27 16:34N 58°57' E 005°45'0 0.0
2015-Aug-27 15:32N 58°57' E 005°45'0 0.0
2015-Aug-27 14:32N 58°57' E 005°45'0 0.0
2015-Aug-27 13:32N 58°57' E 005°45'0 0.0
2015-Aug-27 12:32N 58°57' E 005°45'0 0.0
2015-Aug-27 11:32N 58°57' E 005°45'0 0.0
2015-Aug-27 10:32N 58°57' E 005°45'0 0.0
2015-Aug-27 09:32N 58°57' E 005°45'0 0.0
2015-Aug-27 08:32N 58°57' E 005°45'0 0.0
2015-Aug-27 07:32N 58°57' E 005°45'0 0.0
2015-Aug-27 06:32N 58°57' E 005°45'0 0.0
2015-Aug-27 05:32N 58°57' E 005°45'0 0.0
2015-Aug-27 04:32N 58°57' E 005°45'0 0.0
2015-Aug-27 03:32N 58°57' E 005°45'0 0.0
2015-Aug-27 02:32N 58°57' E 005°45'0 0.0
2015-Aug-27 01:32N 58°57' E 005°45'0 0.0
2015-Aug-27 00:32N 58°57' E 005°45'0 0.0
2015-Aug-26 23:32N 58°57' E 005°45'0 0.0
2015-Aug-26 22:32N 58°57' E 005°45'0 0.0
2015-Aug-26 21:32N 58°57' E 005°45'0 0.0
2015-Aug-26 20:32N 58°57' E 005°45'0 0.0
2015-Aug-26 19:32N 58°57' E 005°45'1 1.4
2015-Aug-26 18:34N 58°58' E 005°46'1 0.6
2015-Aug-26 17:32N 58°58' E 005°45'0 0.0
2015-Aug-26 16:32N 58°58' E 005°45'0 0.0
2015-Aug-26 15:32N 58°58' E 005°45'0 0.0
2015-Aug-26 14:32N 58°58' E 005°45'0 0.0
2015-Aug-26 13:32N 58°58' E 005°45'0 0.0
2015-Aug-26 12:32N 58°58' E 005°45'0 0.0
2015-Aug-26 11:32N 58°58' E 005°45'0 0.0
2015-Aug-26 10:32N 58°58' E 005°45'0 0.0
2015-Aug-26 09:32N 58°58' E 005°45'0 0.0
2015-Aug-26 08:32N 58°58' E 005°45'0 0.0
2015-Aug-26 07:32N 58°58' E 005°45'0 0.0
2015-Aug-26 06:32N 58°58' E 005°45'0 0.0
2015-Aug-26 05:32N 58°58' E 005°45'0 0.0
2015-Aug-26 04:32N 58°58' E 005°45'0 0.0
2015-Aug-26 03:32N 58°58' E 005°45'0 0.0
2015-Aug-26 02:32N 58°58' E 005°45'0 0.0
2015-Aug-26 01:32N 58°58' E 005°45'0 0.0
2015-Aug-26 00:32N 58°58' E 005°45'0 0.0
2015-Aug-25 23:32N 58°58' E 005°45'0 0.0
2015-Aug-25 22:32N 58°58' E 005°45'0 0.0
2015-Aug-25 21:32N 58°58' E 005°45'0 0.0
2015-Aug-25 20:32N 58°58' E 005°45'0 0.0
2015-Aug-25 19:32N 58°58' E 005°45'0 0.0
2015-Aug-25 18:32N 58°58' E 005°45'2 1.6
2015-Aug-25 17:33N 58°57' E 005°45'0 0.0
2015-Aug-25 16:32N 58°57' E 005°45'0 0.0
2015-Aug-25 15:32N 58°57' E 005°45'0 0.0
2015-Aug-25 14:32N 58°57' E 005°45'0 0.0
2015-Aug-25 13:32N 58°57' E 005°45'0 0.0
2015-Aug-25 12:32N 58°57' E 005°45'0 0.0
2015-Aug-25 11:32N 58°57' E 005°45'0 0.0
2015-Aug-25 10:32N 58°57' E 005°45'0 0.0
2015-Aug-25 09:32N 58°57' E 005°45'0 0.0
2015-Aug-25 08:32N 58°57' E 005°45'0 0.0
2015-Aug-25 07:32N 58°57' E 005°45'0 0.0
2015-Aug-25 06:32N 58°57' E 005°45'0 0.0
2015-Aug-25 05:32N 58°57' E 005°45'1 0.7
2015-Aug-25 04:34N 58°57' E 005°46'8 7.9
2015-Aug-25 03:34N 59°02' E 005°34'1010.3
2015-Aug-25 02:33N 58°52' E 005°31'7 6.8
2015-Aug-25 01:33N 58°47' E 005°23'15 7.3
2015-Aug-24 23:31N 58°32' E 005°26'8 8.0
2015-Aug-24 22:33N 58°26' E 005°37'8 8.4
2015-Aug-24 21:33N 58°21' E 005°48'7 7.4
2015-Aug-24 20:34N 58°16' E 005°59'8 8.3
2015-Aug-24 19:33N 58°10' E 006°10'8 8.0
2015-Aug-24 18:33N 58°04' E 006°20'63 7.7
2015-Aug-24 10:27N 58°01' E 008°19'7 8.3
2015-Aug-24 09:33N 58°05' E 008°31'8 7.9
2015-Aug-24 08:33N 58°10' E 008°42'8 8.4
2015-Aug-24 07:33N 58°16' E 008°54'18 8.7
2015-Aug-24 05:26N 58°28' E 009°20'8 9.1
2015-Aug-24 04:34N 58°34' E 009°31'8 8.0
2015-Aug-24 03:34N 58°39' E 009°42'8 7.9
2015-Aug-24 02:34N 58°45' E 009°53'8 7.6
2015-Aug-24 01:33N 58°50' E 010°03'7 7.4
2015-Aug-24 00:34N 58°54' E 010°15'8 7.7
2015-Aug-23 23:34N 58°58' E 010°28'8 8.2
2015-Aug-23 22:34N 59°02' E 010°42'8 7.9
2015-Aug-23 21:34N 59°01' E 010°57'9 9.4
2015-Aug-23 20:34N 59°11' E 010°57'6 5.8
2015-Aug-23 19:33N 59°16' E 011°03'1 1.2
2015-Aug-23 18:31N 59°16' E 011°05'0 0.0
2015-Aug-23 17:31N 59°16' E 011°05'0 0.0
2015-Aug-23 16:28N 59°16' E 011°05'0 0.0
2015-Aug-23 15:31N 59°16' E 011°05'0 0.0
2015-Aug-23 14:28N 59°16' E 011°05'0 0.0
2015-Aug-23 13:31N 59°16' E 011°05'0 0.0
2015-Aug-23 12:31N 59°16' E 011°05'0 0.0
2015-Aug-23 11:28N 59°16' E 011°05'0 0.0
2015-Aug-23 10:31N 59°16' E 011°05'0 0.0
2015-Aug-23 09:28N 59°16' E 011°05'0 0.0
2015-Aug-23 08:31N 59°16' E 011°05'0 0.0
2015-Aug-23 07:31N 59°16' E 011°05'0 0.0
2015-Aug-23 06:31N 59°16' E 011°05'0 0.0
2015-Aug-23 05:31N 59°16' E 011°05'0 0.0
2015-Aug-23 04:28N 59°16' E 011°05'0 0.0
2015-Aug-23 03:31N 59°16' E 011°05'0 0.0
2015-Aug-23 02:31N 59°16' E 011°05'0 0.0
2015-Aug-23 01:31N 59°16' E 011°05'0 0.0
2015-Aug-23 00:31N 59°16' E 011°05'0 0.0
2015-Aug-22 23:31N 59°16' E 011°05'0 0.0
2015-Aug-22 22:31N 59°16' E 011°05'0 0.0
2015-Aug-22 21:31N 59°16' E 011°05'0 0.0
2015-Aug-22 18:31N 59°16' E 011°05'0 0.0
2015-Aug-22 17:31N 59°16' E 011°05'0 0.0
2015-Aug-22 16:31N 59°16' E 011°05'0 0.0
2015-Aug-22 15:31N 59°16' E 011°05'0 0.0
2015-Aug-22 12:25N 59°16' E 011°05'0 0.0
2015-Aug-22 11:31N 59°16' E 011°05'0 0.0
2015-Aug-22 10:28N 59°16' E 011°05'0 0.0
2015-Aug-22 09:31N 59°16' E 011°05'4 4.4
2015-Aug-22 08:33N 59°13' E 010°59'9 9.1
2015-Aug-22 07:34N 59°04' E 010°58'8 7.8
2015-Aug-22 06:33N 59°01' E 010°45'1010.3
2015-Aug-22 05:33N 58°50' E 010°46'8 8.0
2015-Aug-22 04:33N 58°42' E 010°45'9 8.5
2015-Aug-22 03:33N 58°34' E 010°45'9 9.2
2015-Aug-22 02:33N 58°25' E 010°45'9 9.1
2015-Aug-22 01:33N 58°16' E 010°46'9 9.3
2015-Aug-22 00:33N 58°06' E 010°46'9 8.7
2015-Aug-21 23:33N 57°58' E 010°46'8 8.2
2015-Aug-21 22:33N 57°49' E 010°47'9 8.9
2015-Aug-21 21:33N 57°40' E 010°46'1010.2
2015-Aug-21 20:33N 57°30' E 010°44'1010.4
2015-Aug-21 19:33N 57°20' E 010°43'1010.3
2015-Aug-21 18:33N 57°10' E 010°46'9 9.5
2015-Aug-21 17:33N 57°01' E 010°51'10 9.6
2015-Aug-21 16:33N 56°52' E 010°57'10 9.8
2015-Aug-21 15:33N 56°42' E 011°02'10 9.9
2015-Aug-21 14:33N 56°32' E 011°04'10 9.6
2015-Aug-21 13:33N 56°23' E 011°06'10 9.5
2015-Aug-21 12:33N 56°13' E 011°06'9 9.5
2015-Aug-21 11:33N 56°04' E 011°05'9 9.0
2015-Aug-21 10:33N 55°56' E 010°58'9 8.9
2015-Aug-21 09:33N 55°48' E 010°50'10 9.5
2015-Aug-21 08:33N 55°39' E 010°47'10 9.8
2015-Aug-21 07:33N 55°30' E 010°54'9 9.0
2015-Aug-21 06:33N 55°22' E 011°02'9 9.0
2015-Aug-21 05:33N 55°14' E 011°06'9 8.9
2015-Aug-21 04:33N 55°05' E 011°03'8 8.5
2015-Aug-21 03:33N 54°57' E 010°58'9 9.1
2015-Aug-21 02:33N 54°49' E 010°52'8 8.3
2015-Aug-21 01:33N 54°40' E 010°50'8 7.6
2015-Aug-21 00:33N 54°36' E 010°40'8 8.5
2015-Aug-20 23:33N 54°32' E 010°27'8 8.4
2015-Aug-20 22:33N 54°27' E 010°15'6 6.2
2015-Aug-20 21:33N 54°22' E 010°08'0 0.4
2015-Aug-20 20:32N 54°22' E 010°08'0 0.5
2015-Aug-20 19:33N 54°22' E 010°09'2 1.9
2015-Aug-20 18:31N 54°20' E 010°10'0 0.0
2015-Aug-20 17:31N 54°20' E 010°10'0 0.0
2015-Aug-20 16:31N 54°20' E 010°10'0 0.0
2015-Aug-20 15:31N 54°20' E 010°10'0 0.0
2015-Aug-20 14:31N 54°20' E 010°10'0 0.0
2015-Aug-20 13:31N 54°20' E 010°10'0 0.0
2015-Aug-20 12:25N 54°20' E 010°10'0 0.0
2015-Aug-20 11:31N 54°20' E 010°10'0 0.0
2015-Aug-20 10:31N 54°20' E 010°10'0 0.0
2015-Aug-20 09:31N 54°20' E 010°10'0 0.0
2015-Aug-20 08:10N 54°20' E 010°10'6 1.7
2015-Aug-20 04:20N 54°26' E 010°13'5 7.0
2015-Aug-20 03:34N 54°30' E 010°20'7 7.5
2015-Aug-20 02:34N 54°33' E 010°32'8 7.6
2015-Aug-20 01:33N 54°37' E 010°43'8 7.9
2015-Aug-20 00:33N 54°44' E 010°50'8 7.9
2015-Aug-19 23:34N 54°52' E 010°52'8 7.5
2015-Aug-19 22:33N 54°58' E 010°59'86 7.0
2015-Aug-19 10:13N 56°23' E 011°29'5 7.7
2015-Aug-19 09:31N 56°27' E 011°34'9 7.8
2015-Aug-19 08:21N 56°35' E 011°42'6 7.9
2015-Aug-19 07:34N 56°41' E 011°48'8 7.2
2015-Aug-19 06:26N 56°49' E 011°50'7 7.8
2015-Aug-19 05:33N 56°55' E 011°46'8 8.0
2015-Aug-19 04:33N 57°03' E 011°41'8 8.0
2015-Aug-19 03:32N 57°11' E 011°36'8 8.0
2015-Aug-19 02:34N 57°18' E 011°31'8 8.0
2015-Aug-19 01:34N 57°25' E 011°26'8 7.7
2015-Aug-19 00:33N 57°31' E 011°16'8 7.8
2015-Aug-18 23:33N 57°36' E 011°05'8 7.6
2015-Aug-18 22:34N 57°42' E 010°56'8 7.5
2015-Aug-18 21:33N 57°47' E 010°45'7 7.5
2015-Aug-18 20:33N 57°47' E 010°31'8 7.7
2015-Aug-18 19:34N 57°46' E 010°17'  

Dump ship's entire track history